Terminal Aerodrome Forecast
Issued by NWS

Current Version | Previous Version | Text Only | Print | Product List | Glossary On
Versions: 1 2 3 4 5 6 7 8 9 10 11 12 13 14 15
000
FTUS45 KRIW 271120
TAFCPR
TAF
KCPR 271120Z 2712/2812 22013G23KT P6SM SCT150
     FM271800 23014G20KT P6SM VCSH BKN040
     FM272100 26009KT 4SM -SHSN BKN025
     FM280100 24012KT P6SM VCSH SCT040 BKN070=

USA.gov is the U.S. government's official web portal to all federal, state and local government web resources and services.